createdAt,value
2022-11-25T00:04:37.627Z,3.23
2022-11-25T00:09:41.162Z,2.30
2022-11-25T00:14:44.823Z,2.80
2022-11-25T00:19:51.051Z,3.57
2022-11-25T00:24:54.469Z,3.37
2022-11-25T00:30:01.399Z,2.57
2022-11-25T00:35:06.818Z,2.67
2022-11-25T00:40:11.186Z,2.70
2022-11-25T00:45:14.766Z,2.27
2022-11-25T00:50:19.857Z,4.27
2022-11-25T00:55:23.652Z,2.30
2022-11-25T01:00:27.343Z,2.30
2022-11-25T01:05:32.564Z,2.20
2022-11-25T01:10:36.368Z,2.37
2022-11-25T01:15:39.890Z,2.50
2022-11-25T01:20:44.670Z,2.20
2022-11-25T01:25:48.334Z,2.47
2022-11-25T01:31:00.455Z,2.67
2022-11-25T01:36:05.982Z,2.07
2022-11-25T01:41:10.943Z,3.10
2022-11-25T01:46:21.522Z,1.90
2022-11-25T01:51:28.912Z,1.70
2022-11-25T01:56:35.004Z,2.20
2022-11-25T02:01:38.514Z,1.87
2022-11-25T02:06:46.108Z,1.87
2022-11-25T02:11:50.779Z,1.50
2022-11-25T02:16:54.546Z,1.67
2022-11-25T02:22:02.601Z,3.30
2022-11-25T02:27:07.627Z,2.27
2022-11-25T02:32:11.204Z,1.80
2022-11-25T02:37:17.153Z,1.60
2022-11-25T02:42:22.942Z,2.07
2022-11-25T02:47:26.714Z,1.50
2022-11-25T02:52:30.284Z,2.93
2022-11-25T02:57:35.392Z,4.33
2022-11-25T03:02:40.047Z,6.30
2022-11-25T03:07:43.701Z,1.40
2022-11-25T03:12:48.768Z,1.53
2022-11-25T03:17:52.391Z,2.10
2022-11-25T03:22:55.999Z,2.30
2022-11-25T03:28:02.739Z,2.70
2022-11-25T03:33:06.964Z,2.97
2022-11-25T03:38:10.463Z,2.93
2022-11-25T03:43:15.326Z,3.00
2022-11-25T03:48:19.177Z,3.00
2022-11-25T03:53:23.883Z,2.93
2022-11-25T03:58:29.354Z,3.00
2022-11-25T04:03:33.703Z,3.27
2022-11-25T04:08:37.739Z,3.10
2022-11-25T04:13:43.598Z,2.97
2022-11-25T04:18:49.087Z,3.40
2022-11-25T04:23:52.635Z,3.07
2022-11-25T04:28:59.351Z,3.93
2022-11-25T04:34:04.699Z,4.40
2022-11-25T04:39:08.254Z,4.57
2022-11-25T04:44:14.048Z,4.93
2022-11-25T04:49:18.078Z,5.90
2022-11-25T04:54:21.815Z,10.47
2022-11-25T04:59:41.111Z,10.67
2022-11-25T05:04:47.879Z,7.33
2022-11-25T05:09:51.821Z,7.43
2022-11-25T05:15:08.462Z,7.13
2022-11-25T05:20:15.068Z,10.37
2022-11-25T05:25:21.037Z,14.53
2022-11-25T05:30:42.612Z,6.70
2022-11-25T05:35:54.516Z,4.70
2022-11-25T05:41:01.774Z,6.57
2022-11-25T05:46:07.952Z,5.03
2022-11-25T05:51:13.044Z,6.60
2022-11-25T05:56:16.558Z,6.30
2022-11-25T06:01:38.011Z,6.37
2022-11-25T06:06:41.452Z,4.90
2022-11-25T06:11:44.758Z,4.67
2022-11-25T06:16:49.453Z,3.80
2022-11-25T06:22:07.488Z,4.83
2022-11-25T06:27:11.848Z,2.83
2022-11-25T06:32:17.867Z,3.63
2022-11-25T06:37:31.047Z,2.77
2022-11-25T06:42:34.305Z,3.27
2022-11-25T06:47:38.904Z,2.70
2022-11-25T06:52:42.213Z,2.83
2022-11-25T06:57:45.522Z,2.70
2022-11-25T07:02:50.338Z,2.50
2022-11-25T07:07:53.668Z,2.27
2022-11-25T07:12:57.474Z,2.00
2022-11-25T07:18:02.825Z,2.60
2022-11-25T07:23:06.925Z,2.40
2022-11-25T07:28:10.514Z,3.53
2022-11-25T07:33:15.307Z,3.10
2022-11-25T07:38:18.591Z,4.90
2022-11-25T07:43:22.088Z,5.30
2022-11-25T07:48:26.732Z,2.57
2022-11-25T07:53:30.814Z,2.30
2022-11-25T07:58:34.234Z,2.20
2022-11-25T08:03:40.462Z,2.63
2022-11-25T08:08:43.954Z,2.23
2022-11-25T08:13:47.584Z,2.40
2022-11-25T08:18:52.418Z,3.20
2022-11-25T08:23:56.242Z,3.80
2022-11-25T08:29:00.222Z,3.93
2022-11-25T08:34:05.921Z,6.57
2022-11-25T08:39:36.252Z,2.10
2022-11-25T08:44:33.421Z,1.80
2022-11-25T08:49:41.380Z,4.63
2022-11-25T08:54:45.752Z,5.40
2022-11-25T08:59:49.344Z,4.90
2022-11-25T09:04:54.228Z,5.70
2022-11-25T09:09:57.556Z,5.03
2022-11-25T09:15:00.735Z,6.00
2022-11-25T09:20:06.377Z,5.10
2022-11-25T09:25:10.053Z,5.97
2022-11-25T09:30:13.854Z,4.53
2022-11-25T09:35:19.127Z,5.47
2022-11-25T09:40:28.377Z,7.73
2022-11-25T09:45:54.358Z,3.90
2022-11-25T09:51:01.875Z,5.40
2022-11-25T09:56:08.421Z,4.47
2022-11-25T10:01:15.619Z,2.30
2022-11-25T10:06:21.925Z,1.17
2022-11-25T10:11:31.473Z,1.50
2022-11-25T10:16:37.048Z,1.57
2022-11-25T10:21:41.652Z,1.07
2022-11-25T10:26:46.350Z,1.13
2022-11-25T10:31:51.314Z,1.33
2022-11-25T10:36:56.933Z,1.13
2022-11-25T10:42:03.583Z,1.20
2022-11-25T10:47:17.127Z,1.50
2022-11-25T10:52:24.550Z,1.43
2022-11-25T10:57:29.285Z,3.80
2022-11-25T11:02:39.063Z,2.83
2022-11-25T11:07:44.754Z,4.63
2022-11-25T11:12:58.718Z,2.73
2022-11-25T11:18:15.172Z,2.00
2022-11-25T11:23:20.644Z,2.20
2022-11-25T11:28:29.149Z,2.30
2022-11-25T11:33:35.551Z,3.10
2022-11-25T11:38:47.378Z,2.10
2022-11-25T11:43:57.926Z,2.03
2022-11-25T11:49:16.346Z,2.80
2022-11-25T11:54:25.514Z,2.23
2022-11-25T11:59:38.242Z,2.50
2022-11-25T12:04:44.863Z,1.80
2022-11-25T12:09:52.710Z,2.17
2022-11-25T12:15:02.401Z,2.20
2022-11-25T12:20:08.964Z,2.60
2022-11-25T12:25:16.574Z,1.80
2022-11-25T12:30:21.272Z,2.20
2022-11-25T12:35:30.636Z,2.23
2022-11-25T12:40:38.749Z,3.07
2022-11-25T12:45:42.870Z,1.70
2022-11-25T12:50:54.628Z,2.43
2022-11-25T12:56:01.312Z,2.63
2022-11-25T13:01:18.231Z,1.97
2022-11-25T13:06:32.031Z,2.93
2022-11-25T13:11:50.612Z,3.30
2022-11-25T13:16:57.678Z,2.73
2022-11-25T13:22:02.865Z,3.10
2022-11-25T13:27:06.730Z,2.77
2022-11-25T13:32:25.351Z,2.80
2022-11-25T13:37:40.795Z,2.47
2022-11-25T13:42:45.460Z,3.27
2022-11-25T13:47:50.002Z,3.00
2022-11-25T13:52:59.283Z,3.00
2022-11-25T13:58:07.825Z,3.50
2022-11-25T14:03:26.444Z,3.83
2022-11-25T14:08:38.566Z,2.90
2022-11-25T14:13:56.620Z,3.30
2022-11-25T14:24:36.657Z,2.70
2022-11-25T14:29:42.867Z,3.33
2022-11-25T14:34:48.965Z,3.63
2022-11-25T14:39:56.622Z,3.80
2022-11-25T14:45:00.281Z,4.47
2022-11-25T14:50:34.347Z,3.63
2022-11-25T14:55:31.303Z,3.10
2022-11-25T15:00:35.039Z,3.10
2022-11-25T15:05:41.018Z,2.80
2022-11-25T15:10:51.136Z,2.53
2022-11-25T15:15:56.103Z,2.60
2022-11-25T15:21:00.634Z,3.40
2022-11-25T15:26:06.552Z,3.20
2022-11-25T15:31:12.725Z,3.03
2022-11-25T15:36:16.312Z,3.17
2022-11-25T15:41:22.468Z,3.50
2022-11-25T15:46:26.983Z,3.73
2022-11-25T15:51:33.772Z,3.63
2022-11-25T15:56:39.893Z,3.73
2022-11-25T16:01:43.267Z,3.33
2022-11-25T16:06:53.974Z,3.93
2022-11-25T16:12:07.436Z,4.43
2022-11-25T16:17:13.233Z,3.53
2022-11-25T16:22:18.802Z,5.00
2022-11-25T16:27:24.923Z,5.83
2022-11-25T16:32:29.062Z,7.20
2022-11-25T16:37:32.349Z,5.67
2022-11-25T16:42:37.084Z,14.87
2022-11-25T16:47:40.521Z,3.30
2022-11-25T16:52:43.891Z,4.27
2022-11-25T16:57:48.678Z,3.87
2022-11-25T17:02:51.990Z,3.90
2022-11-25T17:07:55.451Z,3.83
2022-11-25T17:13:01.520Z,4.20
2022-11-25T17:18:05.902Z,4.13
2022-11-25T17:23:12.755Z,7.27
2022-11-25T17:28:18.510Z,6.03
2022-11-25T17:33:22.128Z,5.67
2022-11-25T17:38:25.528Z,6.00
2022-11-25T17:43:34.460Z,6.70
2022-11-25T17:48:38.357Z,4.63
2022-11-25T17:53:44.948Z,3.63
2022-11-25T17:58:49.647Z,3.80
2022-11-25T18:03:54.216Z,4.33
2022-11-25T18:08:57.515Z,4.43
2022-11-25T18:14:02.371Z,7.13
2022-11-25T18:19:06.531Z,4.20
2022-11-25T18:24:09.840Z,4.07
2022-11-25T18:29:18.728Z,5.43
2022-11-25T18:34:21.917Z,5.60
2022-11-25T18:39:25.271Z,9.37
2022-11-25T18:44:30.149Z,5.30
2022-11-25T18:49:33.464Z,5.30
2022-11-25T18:54:36.960Z,6.27
2022-11-25T18:59:42.562Z,7.03
2022-11-25T19:04:45.883Z,8.27
2022-11-25T19:09:49.124Z,9.27
2022-11-25T19:14:53.847Z,7.83
2022-11-25T19:19:57.058Z,7.93
2022-11-25T19:25:00.268Z,5.70
2022-11-25T19:30:05.122Z,7.10
2022-11-25T19:35:09.338Z,5.43
2022-11-25T19:40:16.133Z,4.40
2022-11-25T19:45:21.679Z,6.40
2022-11-25T19:50:25.902Z,6.43
2022-11-25T19:55:30.045Z,6.00
2022-11-25T20:00:35.638Z,4.90
2022-11-25T20:05:39.552Z,3.60
2022-11-25T20:10:42.835Z,4.37
2022-11-25T20:15:47.473Z,4.90
2022-11-25T20:20:56.121Z,4.20
2022-11-25T20:25:59.635Z,4.00
2022-11-25T20:31:04.335Z,4.13
2022-11-25T20:36:11.830Z,5.43
2022-11-25T20:41:15.858Z,4.50
2022-11-25T20:46:21.555Z,4.47
2022-11-25T20:51:25.644Z,3.97
2022-11-25T20:56:29.300Z,4.80
2022-11-25T21:01:34.100Z,4.03
2022-11-25T21:06:41.188Z,4.60
2022-11-25T21:11:44.888Z,5.17
2022-11-25T21:16:49.581Z,6.63
2022-11-25T21:21:53.754Z,4.30
2022-11-25T21:26:56.959Z,4.43
2022-11-25T21:32:01.657Z,4.00
2022-11-25T21:37:05.065Z,3.80
2022-11-25T21:42:15.440Z,4.00
2022-11-25T21:47:21.466Z,4.37
2022-11-25T21:52:24.778Z,4.47
2022-11-25T21:57:29.380Z,5.13
2022-11-25T22:02:34.141Z,4.57
2022-11-25T22:07:37.478Z,7.43
2022-11-25T22:12:42.833Z,4.50
2022-11-25T22:17:47.379Z,5.43
2022-11-25T22:22:50.850Z,3.83
2022-11-25T22:27:54.246Z,6.03
2022-11-25T22:33:01.963Z,5.27
2022-11-25T22:38:07.455Z,3.90
2022-11-25T22:43:14.461Z,5.03
2022-11-25T22:48:20.137Z,6.27
2022-11-25T22:53:25.696Z,4.10
2022-11-25T22:58:29.488Z,3.80
2022-11-25T23:03:34.731Z,4.00
2022-11-25T23:08:38.178Z,4.50
2022-11-25T23:13:41.590Z,4.17
2022-11-25T23:18:47.324Z,4.10
2022-11-25T23:23:51.032Z,4.67
2022-11-25T23:28:54.370Z,4.23
2022-11-25T23:33:59.120Z,4.57
2022-11-25T23:39:03.600Z,4.27
2022-11-25T23:44:12.137Z,3.90
2022-11-25T23:49:20.657Z,4.93
2022-11-25T23:54:30.085Z,4.77
2022-11-25T23:59:33.317Z,4.03
